Time;durP1;ratioP1;P1;durP2;ratioP2;P2;SDS_P1;SDS_P2;PMS_P1;PMS_P2;Temp;Humidity;BMP_temperature;BMP_pressure;BME280_temperature;BME280_humidity;BME280_pressure;Samples;Min_cycle;Max_cycle;Signal;HPM_P1;HPM_P2
2021/07/30 00:02:09;;;;;;;10.70;4.85;;;15.70;77.30;;;;;;5073207;28;20082;-73
2021/07/30 00:04:35;;;;;;;11.57;4.97;;;15.60;77.30;;;;;;5073212;28;20028;-73
2021/07/30 00:07:01;;;;;;;11.18;4.93;;;15.70;77.50;;;;;;5070162;28;20029;-73
2021/07/30 00:09:26;;;;;;;8.10;4.63;;;15.60;77.50;;;;;;5068861;28;20754;-73
2021/07/30 00:11:52;;;;;;;12.88;5.63;;;15.60;77.70;;;;;;5036828;28;20074;-73
2021/07/30 00:14:18;;;;;;;11.80;5.28;;;15.60;77.90;;;;;;5072883;28;20037;-74
2021/07/30 00:16:43;;;;;;;11.18;5.63;;;15.60;78.10;;;;;;5071510;28;20021;-77
2021/07/30 00:19:09;;;;;;;12.20;5.30;;;15.50;78.20;;;;;;5055244;28;20039;-77
2021/07/30 00:21:35;;;;;;;12.57;6.15;;;15.50;78.30;;;;;;5071869;28;20029;-77
2021/07/30 00:24:00;;;;;;;10.60;5.85;;;15.40;78.40;;;;;;5073125;28;20024;-77
2021/07/30 00:26:26;;;;;;;11.82;5.80;;;15.40;78.50;;;;;;5071907;28;20033;-77
2021/07/30 00:28:51;;;;;;;9.02;5.70;;;15.40;78.60;;;;;;5055236;28;20076;-77
2021/07/30 00:31:17;;;;;;;12.15;5.43;;;15.30;78.70;;;;;;5071732;28;20074;-77
2021/07/30 00:33:43;;;;;;;11.07;5.43;;;15.30;78.90;;;;;;5073606;28;20036;-77
2021/07/30 00:36:08;;;;;;;11.10;5.38;;;15.30;79.00;;;;;;5077002;28;20024;-77
2021/07/30 00:38:34;;;;;;;12.63;6.07;;;15.30;79.00;;;;;;5075527;28;20021;-77
2021/07/30 00:41:02;;;;;;;13.13;5.53;;;15.20;79.20;;;;;;5075690;28;20067;-77
2021/07/30 00:43:28;;;;;;;10.70;5.53;;;15.20;79.40;;;;;;5076761;28;20028;-77
2021/07/30 00:45:55;;;;;;;13.50;5.88;;;15.20;79.70;;;;;;5075522;28;20078;-77
2021/07/30 00:48:23;;;;;;;13.10;6.30;;;15.20;80.00;;;;;;5075632;28;20024;-77
2021/07/30 00:50:49;;;;;;;12.68;5.90;;;15.20;80.10;;;;;;5076765;28;20033;-77
2021/07/30 00:53:16;;;;;;;12.63;5.55;;;15.20;80.10;;;;;;5076537;28;20441;-74
2021/07/30 00:55:43;;;;;;;13.60;6.28;;;15.10;80.30;;;;;;5076544;28;20021;-74
2021/07/30 00:58:10;;;;;;;15.70;6.88;;;15.10;81.00;;;;;;5076573;28;20151;-73
2021/07/30 01:00:35;;;;;;;12.85;5.85;;;15.10;80.50;;;;;;5076470;28;20107;-73
2021/07/30 01:03:02;;;;;;;12.77;6.10;;;15.10;80.60;;;;;;5075201;28;20047;-74
2021/07/30 01:05:30;;;;;;;13.63;5.80;;;15.10;80.50;;;;;;5075232;28;20028;-73
2021/07/30 01:07:57;;;;;;;9.88;5.88;;;15.10;80.50;;;;;;5076367;28;20031;-73
2021/07/30 01:10:22;;;;;;;11.32;5.97;;;15.10;80.40;;;;;;5076299;28;20039;-74
2021/07/30 01:12:48;;;;;;;12.77;6.65;;;15.10;80.30;;;;;;5074695;28;20045;-73
2021/07/30 01:15:14;;;;;;;12.20;5.90;;;15.00;80.30;;;;;;5074921;28;20037;-73
2021/07/30 01:17:39;;;;;;;12.05;5.97;;;15.10;80.40;;;;;;5076088;28;20082;-73
2021/07/30 01:20:05;;;;;;;13.40;6.47;;;15.00;80.20;;;;;;5075075;28;20082;-73
2021/07/30 01:22:45;;;;;;;12.48;6.30;;;15.00;80.30;;;;;;5072293;28;20028;-74
2021/07/30 01:25:10;;;;;;;12.07;6.20;;;15.00;80.30;;;;;;5061037;28;20043;-73
2021/07/30 01:27:36;;;;;;;10.85;6.00;;;15.00;80.50;;;;;;5071247;28;20451;-73
2021/07/30 01:30:01;;;;;;;13.00;6.07;;;15.00;80.70;;;;;;5071645;28;20029;-73
2021/07/30 01:32:27;;;;;;;9.93;5.80;;;15.00;80.70;;;;;;5054947;28;20373;-73
2021/07/30 01:34:53;;;;;;;12.02;6.35;;;14.90;80.60;;;;;;5054766;28;20024;-73
2021/07/30 01:37:18;;;;;;;16.02;6.47;;;14.90;80.60;;;;;;5054725;28;20025;-73
2021/07/30 01:39:44;;;;;;;10.80;6.72;;;14.90;80.80;;;;;;5071701;28;20071;-73
2021/07/30 01:42:09;;;;;;;12.40;6.10;;;14.90;80.90;;;;;;5071370;28;20111;-74
2021/07/30 01:44:35;;;;;;;15.52;6.88;;;14.90;81.00;;;;;;5055429;28;20512;-73
2021/07/30 01:47:01;;;;;;;13.77;7.38;;;14.80;80.90;;;;;;5056233;28;20057;-73
2021/07/30 01:49:27;;;;;;;10.77;6.07;;;14.80;81.00;;;;;;5055669;28;20025;-73
2021/07/30 01:51:52;;;;;;;10.00;6.40;;;14.80;81.10;;;;;;5071160;28;20033;-74
2021/07/30 01:54:18;;;;;;;12.02;6.45;;;14.80;81.10;;;;;;5054348;28;20025;-73
2021/07/30 01:56:44;;;;;;;12.52;6.53;;;14.80;81.00;;;;;;5070907;28;20036;-74
2021/07/30 01:59:10;;;;;;;14.00;6.50;;;14.80;81.00;;;;;;5054551;28;20025;-74
2021/07/30 02:01:35;;;;;;;12.15;6.75;;;14.70;81.00;;;;;;5054496;28;20039;-74
2021/07/30 02:04:01;;;;;;;13.45;6.35;;;14.70;81.30;;;;;;5054464;28;20032;-74
2021/07/30 02:06:26;;;;;;;12.13;6.18;;;14.70;81.50;;;;;;5054507;28;20024;-74
2021/07/30 02:08:52;;;;;;;12.10;6.05;;;14.70;82.10;;;;;;5055774;28;20055;-74
2021/07/30 02:11:18;;;;;;;11.55;6.25;;;14.60;82.10;;;;;;5055500;28;20499;-74
2021/07/30 02:16:30;;;;;;;11.90;6.57;;;14.60;81.70;;;;;;5068871;28;20431;-74
2021/07/30 02:18:56;;;;;;;13.48;6.47;;;14.60;81.70;;;;;;5054435;28;20033;-74
2021/07/30 02:21:22;;;;;;;12.93;6.80;;;14.60;82.10;;;;;;5070518;28;20120;-74
2021/07/30 02:23:48;;;;;;;10.07;5.55;;;14.60;82.30;;;;;;5055111;28;20477;-74
2021/07/30 02:26:13;;;;;;;14.60;7.47;;;14.60;82.60;;;;;;5055605;28;20032;-74
2021/07/30 02:28:39;;;;;;;12.60;6.47;;;14.60;82.80;;;;;;5070584;28;20026;-74
2021/07/30 02:31:04;;;;;;;13.85;6.53;;;14.60;82.90;;;;;;5070743;28;20036;-74
2021/07/30 02:33:30;;;;;;;11.13;5.88;;;14.50;83.00;;;;;;5055338;28;20365;-74
2021/07/30 02:35:56;;;;;;;12.15;5.90;;;14.50;83.10;;;;;;5053809;28;20028;-73
2021/07/30 02:38:22;;;;;;;10.13;5.82;;;14.50;83.00;;;;;;5053489;28;20020;-73
2021/07/30 02:40:47;;;;;;;10.45;5.88;;;14.50;82.90;;;;;;5054988;28;20025;-73
2021/07/30 02:43:13;;;;;;;15.02;7.22;;;14.50;83.00;;;;;;5054685;28;20040;-73
2021/07/30 02:45:39;;;;;;;12.15;6.28;;;14.50;82.90;;;;;;5053562;28;20029;-73
2021/07/30 02:48:04;;;;;;;10.27;5.90;;;14.50;83.00;;;;;;5070417;28;20465;-73
2021/07/30 02:50:30;;;;;;;12.90;6.07;;;14.50;82.80;;;;;;5070311;28;20063;-73
2021/07/30 02:52:56;;;;;;;13.32;6.03;;;14.40;82.70;;;;;;5053489;28;20039;-73
2021/07/30 02:55:21;;;;;;;12.75;6.45;;;14.40;82.80;;;;;;5069988;28;20029;-76
2021/07/30 02:57:47;;;;;;;10.20;6.28;;;14.40;83.20;;;;;;5052453;28;20052;-76
2021/07/30 03:00:13;;;;;;;12.15;5.68;;;14.30;83.00;;;;;;5054693;28;20056;-76
2021/07/30 03:02:39;;;;;;;12.82;6.30;;;14.30;83.00;;;;;;5053268;28;20060;-76
2021/07/30 03:05:05;;;;;;;12.52;5.75;;;14.30;83.10;;;;;;5054148;28;20115;-76
2021/07/30 03:07:31;;;;;;;13.57;5.93;;;14.30;83.20;;;;;;5069557;28;20043;-76
2021/07/30 03:09:56;;;;;;;12.07;6.25;;;14.30;83.30;;;;;;5058761;28;20036;-77
2021/07/30 03:12:22;;;;;;;11.85;5.75;;;14.30;83.30;;;;;;5062330;28;20396;-76
2021/07/30 03:14:47;;;;;;;15.20;6.80;;;14.30;83.20;;;;;;5072923;28;20028;-77
2021/07/30 03:17:13;;;;;;;12.70;5.50;;;14.30;83.10;;;;;;5072504;28;20480;-76
2021/07/30 03:19:39;;;;;;;18.15;6.75;;;14.30;83.20;;;;;;5072702;28;20031;-76
2021/07/30 03:22:05;;;;;;;10.77;5.93;;;14.30;83.30;;;;;;5073880;28;20033;-76
2021/07/30 03:24:30;;;;;;;14.50;6.15;;;14.30;83.50;;;;;;5074233;28;20503;-76
2021/07/30 03:26:56;;;;;;;12.57;6.10;;;14.30;83.60;;;;;;5072912;28;20452;-76
2021/07/30 03:29:22;;;;;;;13.90;6.13;;;14.30;83.70;;;;;;5055990;28;20047;-76
2021/07/30 03:31:48;;;;;;;16.08;6.97;;;14.30;83.80;;;;;;5073240;28;20479;-76
2021/07/30 03:34:15;;;;;;;13.27;6.82;;;14.30;83.80;;;;;;5073052;28;20094;-76
2021/07/30 03:36:41;;;;;;;13.38;5.70;;;14.30;83.80;;;;;;5073690;28;20024;-76
2021/07/30 03:39:07;;;;;;;12.65;6.50;;;14.30;83.80;;;;;;5055802;28;20032;-76
2021/07/30 03:41:33;;;;;;;13.88;6.32;;;14.20;83.90;;;;;;5055874;28;20025;-76
2021/07/30 03:43:58;;;;;;;15.43;7.07;;;14.30;84.10;;;;;;5056282;28;20036;-76
2021/07/30 03:46:24;;;;;;;13.70;6.35;;;14.20;84.60;;;;;;5072486;28;20035;-76
2021/07/30 03:48:50;;;;;;;11.93;5.82;;;14.20;84.10;;;;;;5073902;28;20107;-76
2021/07/30 03:51:15;;;;;;;14.23;6.35;;;14.20;84.20;;;;;;5072304;28;20025;-76
2021/07/30 03:53:41;;;;;;;13.50;6.43;;;14.20;84.20;;;;;;5055613;28;20032;-76
2021/07/30 03:56:14;;;;;;;12.52;5.93;;;14.20;84.20;;;;;;5073551;28;20035;-76
2021/07/30 03:58:41;;;;;;;14.15;6.93;;;14.30;84.90;;;;;;5055774;28;20417;-76
2021/07/30 04:01:08;;;;;;;11.70;5.95;;;14.30;84.40;;;;;;5069338;28;20051;-76
2021/07/30 04:03:34;;;;;;;11.65;6.18;;;14.20;84.40;;;;;;5072578;28;20047;-76
2021/07/30 04:06:01;;;;;;;13.77;5.65;;;14.20;85.10;;;;;;5073084;28;20033;-76
2021/07/30 04:08:27;;;;;;;17.73;6.60;;;14.30;84.60;;;;;;5073409;28;20020;-76
2021/07/30 04:10:53;;;;;;;12.55;6.38;;;14.30;84.60;;;;;;5073498;28;20388;-77
2021/07/30 04:13:18;;;;;;;13.18;5.78;;;14.30;84.80;;;;;;5073259;28;20087;-76
2021/07/30 04:15:44;;;;;;;16.73;6.32;;;14.30;84.80;;;;;;5055475;28;20052;-76
2021/07/30 04:18:10;;;;;;;12.80;5.82;;;14.30;84.70;;;;;;5073429;28;20036;-76
2021/07/30 04:20:38;;;;;;;11.48;5.97;;;14.30;84.70;;;;;;5071996;28;20020;-77
2021/07/30 04:23:04;;;;;;;9.73;5.05;;;14.30;84.80;;;;;;5073552;28;20028;-77
2021/07/30 04:25:29;;;;;;;10.20;6.00;;;14.40;84.80;;;;;;5055378;28;20040;-76
2021/07/30 04:27:55;;;;;;;11.57;5.55;;;14.30;84.70;;;;;;5055303;28;20108;-76
2021/07/30 04:30:21;;;;;;;12.68;6.45;;;14.40;84.70;;;;;;5055210;28;20039;-76
2021/07/30 04:32:47;;;;;;;11.25;5.78;;;14.40;84.70;;;;;;5055269;28;20040;-76
2021/07/30 04:35:12;;;;;;;17.90;6.13;;;14.40;84.70;;;;;;5072181;28;20021;-76
2021/07/30 04:37:39;;;;;;;11.43;5.65;;;14.40;84.60;;;;;;5072093;28;20476;-73
2021/07/30 04:40:05;;;;;;;11.57;5.65;;;14.40;84.50;;;;;;5055387;28;20099;-73
2021/07/30 04:42:30;;;;;;;14.27;6.18;;;14.40;84.50;;;;;;5038576;28;20077;-73
2021/07/30 04:44:57;;;;;;;11.00;5.63;;;14.40;84.40;;;;;;5055458;28;20029;-73
2021/07/30 04:47:23;;;;;;;13.43;5.63;;;14.50;84.50;;;;;;5072162;28;20025;-73
2021/07/30 04:49:48;;;;;;;12.23;5.82;;;14.50;84.50;;;;;;5073165;28;20028;-73
2021/07/30 04:52:14;;;;;;;11.90;5.25;;;14.50;84.60;;;;;;5073093;28;20036;-73
2021/07/30 04:54:40;;;;;;;10.73;5.90;;;14.60;84.60;;;;;;5073108;28;20035;-73
2021/07/30 04:57:08;;;;;;;15.90;6.20;;;14.60;84.70;;;;;;5072298;28;20487;-73
2021/07/30 04:59:34;;;;;;;13.02;5.90;;;14.60;84.80;;;;;;5073088;28;20017;-73
2021/07/30 05:02:00;;;;;;;16.40;7.28;;;14.70;84.80;;;;;;5055168;28;20395;-73
2021/07/30 05:04:25;;;;;;;12.98;6.03;;;14.70;84.70;;;;;;5071637;28;20094;-73
2021/07/30 05:06:51;;;;;;;13.25;6.05;;;14.70;85.20;;;;;;5055193;28;20021;-73
2021/07/30 05:09:16;;;;;;;14.55;6.43;;;14.80;84.60;;;;;;5055822;28;20044;-73
2021/07/30 05:11:42;;;;;;;15.65;5.28;;;14.80;84.60;;;;;;5051785;28;20025;-73
2021/07/30 05:14:08;;;;;;;11.35;6.50;;;14.80;84.50;;;;;;5051636;28;20048;-73
2021/07/30 05:16:34;;;;;;;13.07;6.47;;;14.80;84.40;;;;;;5051770;28;20037;-73
2021/07/30 05:19:00;;;;;;;10.93;5.97;;;14.90;84.50;;;;;;5052773;28;20021;-73
2021/07/30 05:21:26;;;;;;;11.18;5.85;;;14.90;84.40;;;;;;5056030;28;20017;-73
2021/07/30 05:23:52;;;;;;;10.00;5.55;;;15.00;84.40;;;;;;5055740;28;20032;-77
2021/07/30 05:26:18;;;;;;;12.20;6.18;;;15.00;85.20;;;;;;5038246;28;20025;-77
2021/07/30 05:28:44;;;;;;;14.65;6.28;;;15.00;84.60;;;;;;5056187;28;20029;-76
2021/07/30 05:31:16;;;;;;;15.52;6.25;;;15.00;84.60;;;;;;5056270;28;20037;-76
2021/07/30 05:33:41;;;;;;;15.50;6.90;;;15.10;84.60;;;;;;5054755;28;20017;-76
2021/07/30 05:36:07;;;;;;;13.90;6.13;;;15.10;84.60;;;;;;5038087;28;20017;-77
2021/07/30 05:38:33;;;;;;;14.15;6.90;;;15.10;84.50;;;;;;5057611;28;20377;-76
2021/07/30 05:40:58;;;;;;;12.98;6.50;;;15.20;84.50;;;;;;5057807;28;20116;-76
2021/07/30 05:43:24;;;;;;;14.85;7.15;;;15.30;84.50;;;;;;5075611;28;20036;-77
2021/07/30 05:45:50;;;;;;;13.57;6.15;;;15.40;84.50;;;;;;5075559;28;20044;-77
2021/07/30 05:48:15;;;;;;;14.15;6.68;;;15.40;84.40;;;;;;5057721;28;20039;-76
2021/07/30 05:50:41;;;;;;;12.23;6.13;;;15.40;84.40;;;;;;5075652;28;20082;-77
2021/07/30 05:53:06;;;;;;;13.77;6.38;;;15.50;84.30;;;;;;5075612;28;20377;-77
2021/07/30 05:55:32;;;;;;;11.73;6.68;;;15.50;84.20;;;;;;5075642;28;20025;-77
2021/07/30 05:57:58;;;;;;;17.20;6.68;;;15.60;84.20;;;;;;5074309;28;20555;-77
2021/07/30 06:00:24;;;;;;;13.85;6.47;;;15.60;84.10;;;;;;5057689;28;20107;-76
2021/07/30 06:02:50;;;;;;;13.77;6.10;;;15.70;84.00;;;;;;5075414;28;20067;-77
2021/07/30 06:05:16;;;;;;;13.98;6.88;;;15.80;84.00;;;;;;5057421;28;20024;-77
2021/07/30 06:07:41;;;;;;;11.70;6.63;;;15.90;84.00;;;;;;5074333;28;20040;-75
2021/07/30 06:10:07;;;;;;;13.68;6.68;;;16.00;83.90;;;;;;5075213;28;20031;-76
2021/07/30 06:12:33;;;;;;;12.45;6.13;;;16.10;83.70;;;;;;5073714;28;20376;-75
2021/07/30 06:14:59;;;;;;;15.40;6.95;;;16.20;84.00;;;;;;5040511;28;20025;-77
2021/07/30 06:17:24;;;;;;;13.32;6.13;;;16.30;83.10;;;;;;5073897;28;20044;-76
2021/07/30 06:19:53;;;;;;;14.68;6.32;;;16.30;82.90;;;;;;5073897;28;20488;-76
2021/07/30 06:22:19;;;;;;;18.13;6.47;;;16.40;82.80;;;;;;5075016;28;20036;-77
2021/07/30 06:24:45;;;;;;;14.48;5.57;;;16.40;82.70;;;;;;5073888;28;20029;-76
2021/07/30 06:27:11;;;;;;;13.50;5.80;;;16.50;82.70;;;;;;5073874;28;20035;-77
2021/07/30 06:29:37;;;;;;;11.20;5.65;;;16.50;82.70;;;;;;5074907;28;20035;-77
2021/07/30 06:32:03;;;;;;;10.45;5.88;;;16.60;82.70;;;;;;5073709;28;20439;-76
2021/07/30 06:34:28;;;;;;;10.05;5.63;;;16.70;82.60;;;;;;5073766;28;20488;-76
2021/07/30 06:36:55;;;;;;;14.27;6.10;;;16.80;82.60;;;;;;5074629;28;20045;-76
2021/07/30 06:39:21;;;;;;;9.43;5.55;;;16.90;82.40;;;;;;5073476;28;20028;-73
2021/07/30 06:41:47;;;;;;;11.38;5.63;;;17.00;82.30;;;;;;5074526;28;20086;-74
2021/07/30 06:44:13;;;;;;;12.70;6.20;;;17.00;81.90;;;;;;5073360;28;20035;-74
2021/07/30 06:46:38;;;;;;;12.30;6.63;;;17.10;81.90;;;;;;5073271;28;20078;-73
2021/07/30 06:49:05;;;;;;;13.95;5.60;;;17.20;81.90;;;;;;5056702;28;20056;-73
2021/07/30 06:51:30;;;;;;;14.80;6.30;;;17.30;82.00;;;;;;5056677;28;20396;-74
2021/07/30 06:53:56;;;;;;;14.90;5.93;;;17.40;81.90;;;;;;5056349;28;20028;-73
2021/07/30 06:56:22;;;;;;;11.52;5.70;;;17.50;81.70;;;;;;5056415;28;20590;-73
2021/07/30 06:58:47;;;;;;;11.02;4.78;;;17.60;81.50;;;;;;5056355;28;20557;-73
2021/07/30 07:01:13;;;;;;;10.50;5.43;;;17.70;81.20;;;;;;5073041;28;20603;-74
2021/07/30 07:03:39;;;;;;;12.15;5.68;;;17.80;80.90;;;;;;5072996;28;20056;-73
2021/07/30 07:06:04;;;;;;;12.35;5.45;;;17.90;80.30;;;;;;5072947;28;20040;-73
2021/07/30 07:08:30;;;;;;;14.30;5.63;;;17.90;79.80;;;;;;5074093;28;20033;-73
2021/07/30 07:10:56;;;;;;;15.30;6.80;;;18.00;79.60;;;;;;5073965;28;20060;-74
2021/07/30 07:13:21;;;;;;;10.85;5.38;;;18.10;79.50;;;;;;5055494;28;20433;-74
2021/07/30 07:15:47;;;;;;;15.70;5.97;;;18.20;79.40;;;;;;5072717;28;20025;-74
2021/07/30 07:18:13;;;;;;;11.25;5.40;;;18.30;79.30;;;;;;5072645;28;20411;-73
2021/07/30 07:20:39;;;;;;;10.35;5.70;;;18.40;79.80;;;;;;5072376;28;20021;-74
2021/07/30 07:23:05;;;;;;;11.43;5.70;;;18.40;78.70;;;;;;5072705;28;20518;-74
2021/07/30 07:25:31;;;;;;;13.63;5.55;;;18.50;78.60;;;;;;5072380;28;20115;-73
2021/07/30 07:27:57;;;;;;;13.55;5.68;;;18.60;78.20;;;;;;5073658;28;20120;-74
2021/07/30 07:30:22;;;;;;;10.75;5.15;;;18.60;77.80;;;;;;5072639;28;20062;-74
2021/07/30 07:32:49;;;;;;;12.75;5.57;;;18.70;77.60;;;;;;5072460;28;20040;-76
2021/07/30 07:35:14;;;;;;;10.55;4.53;;;18.80;77.50;;;;;;5072393;28;20020;-76
2021/07/30 07:37:40;;;;;;;9.27;4.90;;;18.90;77.20;;;;;;5073568;28;20043;-76
2021/07/30 07:40:08;;;;;;;15.43;5.28;;;19.00;77.00;;;;;;5072260;28;20027;-77
2021/07/30 07:42:34;;;;;;;10.15;4.30;;;19.00;76.30;;;;;;5071817;28;20037;-77
2021/07/30 07:45:01;;;;;;;11.43;4.20;;;19.10;76.40;;;;;;5073631;28;20032;-77
2021/07/30 07:47:27;;;;;;;10.75;4.05;;;19.20;75.80;;;;;;5073394;28;20029;-77
2021/07/30 07:49:53;;;;;;;11.10;4.88;;;19.20;75.30;;;;;;5073509;28;20043;-74
2021/07/30 07:52:19;;;;;;;12.35;4.20;;;19.30;75.20;;;;;;5071605;28;20028;-74
2021/07/30 07:54:45;;;;;;;10.60;4.78;;;19.40;75.00;;;;;;5073308;28;20069;-73
2021/07/30 07:57:11;;;;;;;11.25;4.35;;;19.40;74.90;;;;;;5073222;28;20031;-74
2021/07/30 07:59:37;;;;;;;13.82;4.65;;;19.50;74.80;;;;;;5073337;28;20111;-74
2021/07/30 08:02:05;;;;;;;10.85;4.35;;;19.50;74.70;;;;;;5072040;28;20020;-73
2021/07/30 08:04:31;;;;;;;12.82;4.82;;;19.60;74.30;;;;;;5055494;28;20050;-73
2021/07/30 08:06:57;;;;;;;12.27;3.78;;;19.70;73.80;;;;;;5071944;28;20381;-73
2021/07/30 08:09:22;;;;;;;10.93;3.92;;;19.70;73.50;;;;;;5038711;28;20035;-73
2021/07/30 08:11:48;;;;;;;8.75;3.80;;;19.80;73.30;;;;;;5071887;28;20032;-73
2021/07/30 08:14:13;;;;;;;11.60;3.78;;;19.80;73.00;;;;;;5054989;28;20037;-72
2021/07/30 08:16:40;;;;;;;10.35;4.32;;;19.90;72.50;;;;;;5072074;28;20043;-73
2021/07/30 08:19:05;;;;;;;10.88;4.07;;;20.10;72.40;;;;;;5073183;28;20028;-73
2021/07/30 08:21:31;;;;;;;10.25;3.60;;;20.20;72.40;;;;;;5055246;28;20069;-73
2021/07/30 08:23:57;;;;;;;13.07;3.03;;;20.30;71.50;;;;;;5071891;28;20062;-73
2021/07/30 08:26:23;;;;;;;8.07;2.78;;;20.40;71.30;;;;;;5071712;28;20082;-73
2021/07/30 08:28:48;;;;;;;8.15;3.35;;;20.50;70.50;;;;;;5073311;28;20495;-75
2021/07/30 08:31:26;;;;;;;10.40;2.90;;;20.60;70.10;;;;;;5072992;28;20036;-76
2021/07/30 08:33:52;;;;;;;10.27;2.88;;;20.80;69.60;;;;;;5071625;28;20020;-77
2021/07/30 08:36:18;;;;;;;10.07;2.70;;;20.90;69.40;;;;;;5071784;28;20384;-77
2021/07/30 08:38:43;;;;;;;9.90;2.85;;;21.00;69.30;;;;;;5071658;28;20476;-75
2021/07/30 08:41:09;;;;;;;9.80;2.40;;;21.10;68.60;;;;;;5055291;28;20033;-75
2021/07/30 08:43:35;;;;;;;8.50;2.80;;;21.20;68.10;;;;;;5054823;28;20033;-76
2021/07/30 08:46:01;;;;;;;7.72;2.28;;;21.30;67.60;;;;;;5071597;28;20495;-76
2021/07/30 08:48:29;;;;;;;8.25;2.65;;;21.30;67.90;;;;;;5071629;28;20127;-77
2021/07/30 08:50:54;;;;;;;10.73;3.38;;;21.40;67.60;;;;;;5072831;28;20059;-78
2021/07/30 08:53:25;;;;;;;7.93;2.63;;;21.40;66.60;;;;;;5072472;28;20068;-76
2021/07/30 08:55:52;;;;;;;8.05;2.33;;;21.50;66.60;;;;;;5075219;28;20032;-76
2021/07/30 08:58:18;;;;;;;6.85;2.20;;;21.60;66.90;;;;;;5058252;28;20029;-77
2021/07/30 09:00:44;;;;;;;7.32;2.08;;;21.70;66.70;;;;;;5075208;28;20024;-75
2021/07/30 09:03:10;;;;;;;7.40;2.50;;;21.80;66.80;;;;;;5076548;28;20029;-76
2021/07/30 09:05:36;;;;;;;6.35;2.00;;;21.80;66.60;;;;;;5075164;28;20029;-76
2021/07/30 09:08:07;;;;;;;8.30;2.00;;;21.90;66.30;;;;;;5075068;28;20052;-76
2021/07/30 09:10:36;;;;;;;4.90;2.15;;;22.00;66.00;;;;;;5042041;28;20506;-76
2021/07/30 09:13:17;;;;;;;6.13;2.45;;;22.20;65.90;;;;;;5076223;28;20032;-77
2021/07/30 09:15:45;;;;;;;5.30;1.88;;;22.30;65.70;;;;;;5076168;28;20048;-76
2021/07/30 09:18:24;;;;;;;5.95;1.42;;;22.40;65.20;;;;;;5075059;28;20040;-77
2021/07/30 09:20:51;;;;;;;6.22;2.28;;;22.50;64.90;;;;;;5076183;28;20047;-76
2021/07/30 09:23:19;;;;;;;6.40;2.45;;;22.60;64.10;;;;;;5076163;28;20477;-77
2021/07/30 09:25:45;;;;;;;5.85;1.88;;;22.60;64.00;;;;;;5058770;28;20122;-77
2021/07/30 09:28:11;;;;;;;9.35;1.95;;;22.80;64.10;;;;;;5076023;28;20032;-76
2021/07/30 09:30:38;;;;;;;8.02;2.33;;;22.90;63.40;;;;;;5076073;28;20048;-77
2021/07/30 09:33:04;;;;;;;8.13;2.30;;;23.00;62.80;;;;;;5075807;28;20513;-77
2021/07/30 09:35:29;;;;;;;6.50;2.05;;;23.00;62.50;;;;;;5076115;28;20033;-78
2021/07/30 09:38:17;;;;;;;8.95;2.60;;;23.00;61.50;;;;;;5075990;28;20025;-77
2021/07/30 09:40:43;;;;;;;9.43;2.90;;;23.00;60.60;;;;;;5075935;28;20024;-78
2021/07/30 09:43:23;;;;;;;5.07;1.83;;;23.10;60.50;;;;;;5074607;28;20043;-77
2021/07/30 09:45:51;;;;;;;4.65;1.98;;;23.20;61.50;;;;;;5058137;28;20033;-78
2021/07/30 09:48:18;;;;;;;7.00;1.90;;;23.30;61.00;;;;;;5074693;28;20029;-76
2021/07/30 09:50:44;;;;;;;5.38;2.08;;;23.50;60.70;;;;;;5057762;28;20086;-78
2021/07/30 09:53:10;;;;;;;7.85;3.35;;;23.50;60.20;;;;;;5074386;28;20431;-78
2021/07/30 09:55:38;;;;;;;9.60;2.35;;;23.60;60.20;;;;;;5074282;28;20112;-76
2021/07/30 09:58:05;;;;;;;7.60;2.15;;;23.70;59.70;;;;;;5074284;28;20025;-78
2021/07/30 10:00:32;;;;;;;8.32;2.55;;;23.70;59.00;;;;;;5074074;28;20029;-76
2021/07/30 10:03:02;;;;;;;8.65;2.47;;;23.80;58.90;;;;;;5074486;28;20029;-77
2021/07/30 10:05:29;;;;;;;7.15;1.95;;;23.90;58.60;;;;;;5074983;28;20537;-76
2021/07/30 10:07:56;;;;;;;6.15;1.60;;;23.90;58.60;;;;;;5073999;28;20030;-76
2021/07/30 10:12:52;;;;;;;4.00;1.80;;;24.20;59.00;;;;;;5074317;28;20536;-77
2021/07/30 10:15:18;;;;;;;8.35;2.08;;;24.40;59.10;;;;;;5057658;28;20032;-77
2021/07/30 10:17:53;;;;;;;7.90;2.78;;;24.50;58.80;;;;;;5075234;28;20047;-76
2021/07/30 10:20:21;;;;;;;7.55;2.20;;;24.80;57.90;;;;;;5073892;28;20104;-77
2021/07/30 10:23:08;;;;;;;4.97;2.00;;;24.90;56.80;;;;;;5075039;28;20077;-76
2021/07/30 10:25:42;;;;;;;3.45;1.60;;;24.90;56.90;;;;;;5074932;28;20100;-78
2021/07/30 10:28:28;;;;;;;5.13;1.73;;;24.80;56.70;;;;;;5073841;28;20033;-78
2021/07/30 10:31:02;;;;;;;4.25;1.48;;;24.80;55.90;;;;;;5057264;28;20603;-75
2021/07/30 10:33:34;;;;;;;4.63;1.60;;;24.80;56.00;;;;;;5073387;28;20031;-76
2021/07/30 10:36:07;;;;;;;5.78;2.00;;;24.70;56.30;;;;;;5074758;28;20077;-77
2021/07/30 10:38:34;;;;;;;5.88;1.95;;;24.70;56.00;;;;;;5073525;28;20016;-77
2021/07/30 10:41:06;;;;;;;5.97;2.08;;;24.80;56.00;;;;;;5056869;28;20484;-76
2021/07/30 10:43:52;;;;;;;3.17;1.50;;;24.90;56.00;;;;;;5073206;28;20081;-77
2021/07/30 10:46:18;;;;;;;4.03;1.20;;;25.00;55.60;;;;;;5073067;28;20085;-77
2021/07/30 10:48:45;;;;;;;5.53;1.42;;;25.00;55.70;;;;;;5056866;28;20037;-79
2021/07/30 10:53:52;;;;;;;5.15;1.40;;;25.60;55.30;;;;;;5074400;28;20028;-77
2021/07/30 10:56:18;;;;;;;5.25;1.17;;;25.90;54.70;;;;;;5073162;28;20425;-77
2021/07/30 10:58:43;;;;;;;7.82;1.77;;;26.20;55.20;;;;;;5074666;28;20099;-77
2021/07/30 11:01:21;;;;;;;4.60;1.50;;;26.50;54.40;;;;;;5073074;28;20020;-78
2021/07/30 11:03:49;;;;;;;5.10;1.42;;;26.60;53.40;;;;;;5072858;28;20032;-78
2021/07/30 11:06:29;;;;;;;5.45;1.77;;;26.60;53.00;;;;;;5072789;28;20052;-76
2021/07/30 11:09:04;;;;;;;5.45;1.58;;;26.60;52.90;;;;;;5069480;28;20499;-77
2021/07/30 11:11:50;;;;;;;5.03;1.67;;;26.60;52.60;;;;;;5061350;28;20067;-76
2021/07/30 11:14:28;;;;;;;3.53;1.10;;;26.70;52.60;;;;;;5052401;28;20128;-77
2021/07/30 11:16:54;;;;;;;4.43;1.42;;;26.70;52.40;;;;;;5053821;28;20036;-78
2021/07/30 11:19:31;;;;;;;4.40;1.58;;;26.90;52.40;;;;;;5054003;28;20367;-78
2021/07/30 11:21:58;;;;;;;2.67;1.05;;;26.90;52.20;;;;;;5052811;28;20047;-78
2021/07/30 11:24:24;;;;;;;3.55;1.50;;;27.10;52.10;;;;;;5053131;28;20077;-74
2021/07/30 11:26:50;;;;;;;5.63;1.45;;;27.20;51.10;;;;;;5054081;28;20135;-75
2021/07/30 11:29:18;;;;;;;4.15;1.17;;;27.20;51.30;;;;;;5052558;28;20033;-74
2021/07/30 11:31:54;;;;;;;4.40;1.27;;;27.30;51.40;;;;;;5052909;28;20020;-76
2021/07/30 11:34:29;;;;;;;4.70;1.50;;;27.70;51.30;;;;;;5052440;28;20102;-74
2021/07/30 11:36:59;;;;;;;6.07;1.33;;;28.10;50.80;;;;;;5054123;28;20398;-75
2021/07/30 11:39:54;;;;;;;7.30;1.92;;;28.60;50.90;;;;;;5052580;28;20051;-75
2021/07/30 11:42:30;;;;;;;4.53;1.38;;;28.90;49.00;;;;;;5031825;28;20090;-74
2021/07/30 11:45:00;;;;;;;2.70;1.20;;;28.80;48.80;;;;;;5053869;28;20086;-74
2021/07/30 11:47:28;;;;;;;4.43;1.42;;;28.80;49.00;;;;;;5052738;28;20021;-75
2021/07/30 11:50:10;;;;;;;3.72;1.23;;;28.80;48.60;;;;;;5053043;28;20034;-74
2021/07/30 11:52:37;;;;;;;4.72;1.88;;;28.50;47.70;;;;;;5052413;28;20032;-78
2021/07/30 11:55:19;;;;;;;4.45;1.60;;;28.50;47.80;;;;;;5052292;28;20021;-75
2021/07/30 11:57:46;;;;;;;2.38;1.17;;;28.60;47.50;;;;;;5052486;28;20013;-75
2021/07/30 12:00:24;;;;;;;4.38;1.75;;;28.60;47.50;;;;;;5035211;28;20029;-75
2021/07/30 12:02:50;;;;;;;4.60;1.50;;;28.40;47.80;;;;;;5071880;28;20066;-74
2021/07/30 12:05:16;;;;;;;3.85;1.48;;;28.20;47.80;;;;;;5055034;28;20067;-77
2021/07/30 12:07:41;;;;;;;5.07;1.50;;;28.00;48.20;;;;;;5055537;28;20031;-74
2021/07/30 12:10:10;;;;;;;2.85;1.55;;;27.70;48.70;;;;;;5056075;28;20032;-75
2021/07/30 12:12:43;;;;;;;4.63;1.20;;;27.60;49.20;;;;;;5055639;28;20036;-75
2021/07/30 12:15:11;;;;;;;2.38;1.35;;;27.60;49.50;;;;;;5072964;28;20048;-73
2021/07/30 12:17:37;;;;;;;3.85;1.60;;;27.70;49.60;;;;;;5073349;28;20150;-75
2021/07/30 12:20:10;;;;;;;4.47;1.55;;;27.80;49.40;;;;;;5072377;28;20031;-75
2021/07/30 12:22:46;;;;;;;3.08;1.42;;;27.80;48.70;;;;;;5073160;28;20579;-74
2021/07/30 12:25:17;;;;;;;5.30;1.52;;;27.60;48.90;;;;;;5072164;28;20027;-74
2021/07/30 12:27:44;;;;;;;3.92;1.35;;;27.50;49.00;;;;;;5073487;28;20028;-75
2021/07/30 12:30:26;;;;;;;4.10;1.60;;;27.30;49.10;;;;;;5075234;28;20028;-73
2021/07/30 12:32:52;;;;;;;5.82;1.70;;;27.00;49.60;;;;;;5077511;28;20621;-77
2021/07/30 12:35:18;;;;;;;3.53;1.58;;;26.90;50.60;;;;;;5059526;28;20120;-73
2021/07/30 12:38:06;;;;;;;2.40;1.30;;;26.60;50.20;;;;;;5077358;28;20086;-76
2021/07/30 12:40:34;;;;;;;5.28;1.65;;;26.40;51.20;;;;;;5077307;28;20025;-74
2021/07/30 12:43:20;;;;;;;4.43;2.00;;;26.10;51.90;;;;;;5076086;28;20358;-76
2021/07/30 12:45:49;;;;;;;3.65;1.60;;;25.80;53.90;;;;;;5076171;28;20020;-74
2021/07/30 12:48:17;;;;;;;5.40;2.05;;;25.60;55.10;;;;;;5075951;28;20130;-75
2021/07/30 12:50:43;;;;;;;3.08;1.65;;;25.40;55.40;;;;;;5075761;28;20033;-73